»·PEaware :: SNW1212 KLAS-KBZN

SNW1212 :: KLAS-KBZN

FLIGHT INFORMATION

Flight Status: Arrived
Operator: Unknown
More flights by this operator :: More flights under this callsign
Pilot: Andrew D. (25626)
Aircraft: BOEING 737-700
(B737)
More flights by this aircraft type
Origin: KLAS McCarran Intl
United States
Destination: KBZN Gallatin
United States
More flights between these airports :: More routes between these airports
Route: TRALR9 MLF J9 DBS
File this flight plan on PilotEdge
Remarks: RMK / CALLSIGN "SUNWEST"
Altitude:
(Current/Filed)
37,000ft
Speed:
(Current/Filed)
456kts
Departed: 31-Oct-19 11:41 AM
Arrived: 31-Oct-19 01:27 PM
Distance/Time
Traveled:
609nm/1:46
Distance/Time
To Go:
Arrived

Flight Plot

Page will automatically refresh every two minutes.

Flight plan parsing failed; only flown route is shown


Map Options




Map Legend


Flown Route
Filed Route
Departure Airport
Arrival Airport
Navaid (VOR, NDB)
Fix

Horizontal Profiles

Position Reports

Time Latitude Longitude Heading Altitude Ground
Speed
31-Oct-19 11:02 36.083143 -115.140019 133 2188ft 0kts
31-Oct-19 11:03 36.083143 -115.140019 133 2188ft 0kts
31-Oct-19 11:04 36.083143 -115.140019 133 2188ft 0kts
31-Oct-19 11:05 36.083143 -115.140019 133 2188ft 0kts
31-Oct-19 11:06 36.083143 -115.140019 133 2188ft 0kts
31-Oct-19 11:07 36.083143 -115.140019 133 2188ft 0kts
31-Oct-19 11:08 36.083143 -115.140019 133 2188ft 0kts
31-Oct-19 11:09 36.083143 -115.140019 133 2188ft 0kts
31-Oct-19 11:10 36.083143 -115.140019 133 2188ft 0kts
31-Oct-19 11:11 36.083143 -115.140019 133 2188ft 0kts
31-Oct-19 11:12 36.083143 -115.140019 133 2188ft 0kts
31-Oct-19 11:13 36.083143 -115.140019 133 2188ft 0kts
31-Oct-19 11:14 36.083143 -115.140019 133 2188ft 0kts
31-Oct-19 11:15 36.083143 -115.140019 133 2188ft 0kts
31-Oct-19 11:16 36.083143 -115.140019 133 2188ft 0kts
31-Oct-19 11:17 36.083143 -115.140019 133 2188ft 0kts
31-Oct-19 11:18 36.083143 -115.140019 133 2188ft 0kts
31-Oct-19 11:19 36.083143 -115.140019 133 2188ft 0kts
31-Oct-19 11:20 36.083143 -115.140019 133 2188ft 0kts
31-Oct-19 11:21 36.083143 -115.140019 133 2188ft 0kts
31-Oct-19 11:22 36.083143 -115.140019 133 2188ft 0kts
31-Oct-19 11:23 36.083143 -115.140019 133 2188ft 0kts
31-Oct-19 11:24 36.083143 -115.140019 133 2188ft 0kts
31-Oct-19 11:25 36.083143 -115.140019 133 2188ft 0kts
31-Oct-19 11:26 36.083143 -115.140019 133 2188ft 0kts
31-Oct-19 11:27 36.083143 -115.140019 133 2188ft 0kts
31-Oct-19 11:28 36.083143 -115.140019 133 2188ft 0kts
31-Oct-19 11:29 36.083481 -115.140437 138 2188ft 2kts
31-Oct-19 11:30 36.083971 -115.140680 225 2188ft 0kts
31-Oct-19 11:31 36.083971 -115.140680 225 2188ft 0kts
31-Oct-19 11:32 36.083971 -115.140680 225 2188ft 0kts
31-Oct-19 11:33 36.082503 -115.141591 179 2188ft 16kts
31-Oct-19 11:34 36.078893 -115.141588 180 2188ft 1kts
31-Oct-19 11:36 36.078274 -115.138978 89 2188ft 19kts
31-Oct-19 11:37 36.078283 -115.130961 90 2188ft 23kts
31-Oct-19 11:38 36.078283 -115.123427 89 2188ft 19kts
31-Oct-19 11:39 36.077373 -115.121315 139 2188ft 0kts
31-Oct-19 11:40 36.076813 -115.121236 181 2188ft 13kts
31-Oct-19 11:41 36.076401 -115.149373 271 2521ft 164kts
31-Oct-19 11:42 36.076485 -115.205353 270 5312ft 172kts
31-Oct-19 11:43 36.053404 -115.267791 201 6620ft 262kts
31-Oct-19 11:44 35.979158 -115.295617 186 7005ft 280kts
31-Oct-19 11:45 35.902481 -115.275656 162 9961ft 289kts
31-Oct-19 11:46 35.859969 -115.193058 83 12167ft 353kts
31-Oct-19 11:47 35.870088 -115.066220 76 14836ft 384kts
31-Oct-19 11:48 35.919377 -114.947141 59 17874ft 399kts
31-Oct-19 11:49 35.972670 -114.822495 63 20474ft 420kts
31-Oct-19 11:50 36.023394 -114.689128 64 22712ft 439kts
31-Oct-19 11:51 36.076826 -114.550548 63 24713ft 455kts
31-Oct-19 11:52 36.131947 -114.406930 64 26509ft 468kts
31-Oct-19 11:53 36.188126 -114.259342 64 28033ft 480kts
31-Oct-19 11:54 36.246675 -114.108298 63 29376ft 491kts
31-Oct-19 11:55 36.305750 -113.955955 63 31104ft 488kts
31-Oct-19 11:55 36.354776 -113.829698 63 32472ft 486kts
31-Oct-19 11:56 36.413313 -113.679089 56 33928ft 482kts
31-Oct-19 11:58 36.542012 -113.585887 11 35324ft 466kts
31-Oct-19 11:58 36.646913 -113.554064 10 36285ft 465kts
31-Oct-19 11:59 36.772481 -113.516145 10 37309ft 464kts
31-Oct-19 12:01 36.919403 -113.471841 9 37445ft 462kts
31-Oct-19 12:01 37.023498 -113.440277 10 37451ft 462kts
31-Oct-19 12:02 37.148379 -113.402350 9 37449ft 461kts
31-Oct-19 12:04 37.293804 -113.357891 10 37440ft 460kts
31-Oct-19 12:04 37.397644 -113.325935 10 37434ft 460kts
31-Oct-19 12:05 37.521376 -113.286110 10 37426ft 459kts
31-Oct-19 12:06 37.645114 -113.246129 10 37421ft 459kts
31-Oct-19 12:07 37.768899 -113.206110 10 37421ft 458kts
31-Oct-19 12:08 37.892283 -113.166123 10 37425ft 458kts
31-Oct-19 12:09 38.015871 -113.125868 10 37434ft 458kts
31-Oct-19 12:10 38.138555 -113.085853 10 37445ft 455kts
31-Oct-19 12:11 38.261180 -113.045575 10 37455ft 455kts
31-Oct-19 12:12 38.383306 -113.000745 17 37425ft 459kts
31-Oct-19 12:13 38.500777 -112.936821 19 37410ft 460kts
31-Oct-19 12:14 38.618239 -112.872544 18 37412ft 459kts
31-Oct-19 12:15 38.735759 -112.808345 18 37417ft 459kts
31-Oct-19 12:16 38.853219 -112.744038 18 37423ft 458kts
31-Oct-19 12:17 38.970773 -112.679362 18 37430ft 458kts
31-Oct-19 12:18 39.087897 -112.614662 18 37435ft 458kts
31-Oct-19 12:19 39.204801 -112.549845 18 37438ft 458kts
31-Oct-19 12:20 39.321868 -112.484695 18 37439ft 458kts
31-Oct-19 12:21 39.438687 -112.419442 18 37440ft 458kts
31-Oct-19 12:22 39.555830 -112.353766 18 37442ft 457kts
31-Oct-19 12:23 39.672319 -112.288217 18 37448ft 457kts
31-Oct-19 12:24 39.789248 -112.222318 18 37455ft 457kts
31-Oct-19 12:25 39.905703 -112.156180 18 37463ft 457kts
31-Oct-19 12:26 40.022091 -112.089386 18 37470ft 457kts
31-Oct-19 12:27 40.138438 -112.021333 18 37473ft 457kts
31-Oct-19 12:28 40.255080 -111.955830 10 37472ft 451kts
31-Oct-19 12:29 40.377238 -111.948102 351 37468ft 437kts
31-Oct-19 12:30 40.497395 -111.956761 351 37461ft 437kts
31-Oct-19 12:31 40.618793 -111.965404 351 37459ft 436kts
31-Oct-19 12:32 40.739787 -111.974073 351 37460ft 434kts
31-Oct-19 12:33 40.860345 -111.982693 352 37459ft 434kts
31-Oct-19 12:34 40.980877 -111.990738 352 37455ft 432kts
31-Oct-19 12:35 41.100940 -111.998796 352 37451ft 431kts
31-Oct-19 12:36 41.220346 -112.006832 352 37459ft 429kts
31-Oct-19 12:37 41.339619 -112.014851 352 37461ft 428kts
31-Oct-19 12:38 41.458490 -112.022889 352 37474ft 427kts
31-Oct-19 12:39 41.577230 -112.030956 352 37479ft 427kts
31-Oct-19 12:40 41.696117 -112.039065 352 37472ft 426kts
31-Oct-19 12:41 41.814576 -112.047171 352 37464ft 426kts
31-Oct-19 12:42 41.932989 -112.055306 352 37459ft 426kts
31-Oct-19 12:43 42.051546 -112.063482 352 37454ft 426kts
31-Oct-19 12:44 42.169945 -112.071678 352 37443ft 426kts
31-Oct-19 12:45 42.288318 -112.079904 352 37435ft 425kts
31-Oct-19 12:46 42.406613 -112.088154 352 37441ft 425kts
31-Oct-19 12:47 42.524770 -112.096425 352 37435ft 425kts
31-Oct-19 12:48 42.642628 -112.104706 352 37427ft 423kts
31-Oct-19 12:49 42.760070 -112.112991 352 37424ft 423kts
31-Oct-19 12:50 42.877778 -112.121327 351 37424ft 422kts
31-Oct-19 12:51 42.995059 -112.129662 351 37422ft 421kts
31-Oct-19 12:52 43.112142 -112.138015 351 37423ft 421kts
31-Oct-19 12:53 43.228684 -112.146363 351 37426ft 419kts
31-Oct-19 12:54 43.345342 -112.154749 350 37433ft 420kts
31-Oct-19 12:55 43.461949 -112.163168 350 37438ft 419kts
31-Oct-19 12:56 43.578208 -112.171590 350 37438ft 418kts
31-Oct-19 12:57 43.694745 -112.180068 350 37435ft 418kts
31-Oct-19 12:58 43.810879 -112.188531 350 37431ft 419kts
31-Oct-19 12:59 43.927469 -112.197082 350 37416ft 418kts
31-Oct-19 13:00 44.043783 -112.205605 351 37407ft 419kts
31-Oct-19 13:01 44.160023 -112.161686 13 37398ft 442kts
31-Oct-19 13:02 44.273779 -112.095893 15 37384ft 444kts
31-Oct-19 13:03 44.387355 -112.027643 15 37377ft 444kts
31-Oct-19 13:04 44.501305 -111.958703 15 37374ft 446kts
31-Oct-19 13:05 44.614584 -111.889527 15 34979ft 446kts
31-Oct-19 13:06 44.729238 -111.819063 15 31703ft 454kts
31-Oct-19 13:07 44.845349 -111.747347 16 28360ft 453kts
31-Oct-19 13:08 44.959002 -111.676822 16 25585ft 437kts
31-Oct-19 13:09 45.068112 -111.608830 16 22884ft 421kts
31-Oct-19 13:10 45.173489 -111.542889 17 20239ft 406kts
31-Oct-19 13:11 45.274596 -111.479107 17 17843ft 387kts
31-Oct-19 13:12 45.371269 -111.418349 17 14921ft 365kts
31-Oct-19 13:13 45.460793 -111.361622 17 13845ft 354kts
31-Oct-19 13:14 45.546171 -111.297081 23 13010ft 349kts
31-Oct-19 13:15 45.624483 -111.319541 322 11752ft 280kts
31-Oct-19 13:16 45.685618 -111.379038 323 10340ft 260kts
31-Oct-19 13:17 45.743000 -111.427805 348 9946ft 227kts
31-Oct-19 13:18 45.803047 -111.433200 353 9868ft 208kts
31-Oct-19 13:19 45.864268 -111.439716 352 8423ft 231kts
31-Oct-19 13:20 45.922502 -111.431913 46 7914ft 206kts
31-Oct-19 13:21 45.920322 -111.353715 124 7534ft 193kts
31-Oct-19 13:22 45.885234 -111.301952 138 7093ft 180kts
31-Oct-19 13:23 45.851062 -111.254280 138 6180ft 154kts
31-Oct-19 13:24 45.822625 -111.214613 138 5415ft 136kts
31-Oct-19 13:25 45.795953 -111.177446 134 4706ft 133kts
31-Oct-19 13:26 45.778186 -111.152703 136 4479ft 28kts
31-Oct-19 13:27 45.774713 -111.151981 315 4479ft 17kts
31-Oct-19 13:28 45.778329 -111.157415 257 4479ft 15kts
31-Oct-19 13:29 45.778778 -111.160456 232 4479ft 0kts

Navigation Log

Ident Type
Flight plan parsing failed, navigation log unavailable